West, Illinois
Current Conditions -  °F | °C
As of 7:56 AM on Saturday 22 Nov 2014 (Local Time) from KBMI Reporting Station
Overcast Overcast  
Wind Chill: 31°   Ceiling: 1700
Heat Index: 40°   Visibility: 10mi
Dew Point: 37°   Wind: 16mph
Humidity: 89%   Direction: 200°SSW
Pressure: 30.06"   Gusts: NA
Location:  40.382°N, 88.6331°W
Report Text: KBMI 221356Z 20014KT 10SM OVC017 04/03 A3006 RMK AO2 T00440027 RAE1257 SLP193
Loading
Personal Weather Stations






























Interactive Weather Map New forecast layout! Learn more

10-Day Weather Forecast

Advertisements
Track Severe Weather on mobile